METAR Analyzer

一覧表示

Hello, Guest. (Login)

RJCC/CTS  -  札幌/新千歳

観測日時
2022-05-25 19:00 (UTC) (40分前)
気温
8
露点
8
湿数
0
相対湿度
100%
QNH
1010.5hPa
推定現地気圧
1007.5hPa
推定海面気圧
1010.6hPa
体感温度
1.2
(無風時)
10.8
HI
7.5
気温前日比
-1
体感温度前日比
+0.1
HI前日比
-1.1
水平視程
8000m
鉛直視程
データなし
雲底高度
No dense clouds
V/I
VMC (VFR)
Min. H-Vis
3000m on the SE side
卓越風
3kt from 160°
ガスト
No gust
降水
報告なし
その他の天気
散在する霧
少しの(1/8) 層雲 @ 100ft AGL

RJCC 251900Z 16003KT 8000 BCFG FEW001 08/08 Q1010 RMK 1ST001 A2984 3000SE

RJTT/HND  -  東京/羽田

観測日時
2022-05-25 19:00 (UTC) (40分前)
気温
18
露点
16
湿数
2
相対湿度
88.1%
QNH
1011.9hPa
推定現地気圧
1011.2hPa
推定海面気圧
1011.9hPa
体感温度
11.8
(無風時)
19.5
HI
18.2
気温前日比
-2
体感温度前日比
-1.2
HI前日比
-2.2
水平視程
>10000m
鉛直視程
データなし
雲底高度
No dense clouds
V/I
VMC (VFR)
RVR
No RVR data
卓越風
5kt from 160°
ガスト
No gust
降水
報告なし
その他の天気
報告なし
少しの(1/8) 積雲 @ 3000ft AGL

RJTT 251900Z 16005KT 9999 FEW030 18/16 Q1012 NOSIG RMK 1CU030 A2988

RJAA/NRT  -  東京/成田

観測日時
2022-05-25 19:00 (UTC) (40分前)
気温
14
露点
13
湿数
1
相対湿度
93.7%
QNH
1012.2hPa
推定現地気圧
1010.9hPa
推定海面気圧
1012.2hPa
体感温度
10.1
(無風時)
16.2
HI
13.9
気温前日比
-1
体感温度前日比
+0.2
HI前日比
-1.3
水平視程
>10000m / 一時 3000m
鉛直視程
データなし
雲底高度
No dense clouds
V/I
VMC (VFR)
RVR
No RVR data
卓越風
2kt from 150°
ガスト
No gust
降水
報告なし
その他の天気
報告なし
その他の天気 (一時)
もや
目立った雲なし

RJAA 251900Z AUTO 15002KT 9999 NCD 14/13 Q1012 TEMPO 3000 BR RMK A2989

RJGG/NGO  -  名古屋/中部

観測日時
2022-05-25 19:00 (UTC) (40分前)
気温
20
露点
18
湿数
2
相対湿度
88.3%
QNH
1009.5hPa
推定現地気圧
1009.0hPa
推定海面気圧
1009.5hPa
体感温度
13.4
(無風時)
21.2
HI
20.4
気温前日比
+1
体感温度前日比
+1.3
HI前日比
+1.1
水平視程
>10000m
鉛直視程
データなし
雲底高度
11000ft AGL
V/I
VMC (VFR)
RVR
No RVR data
卓越風
7kt from 80°
ガスト
No gust
降水
報告なし
その他の天気
報告なし
少しの雲 @ 1800ft AGL / 散在する雲 @ 3200ft AGL / 隙間のある雲 @ 11000ft AGL /  塔状積雲 @ 不明な高さ

RJGG 251900Z AUTO 08007KT 9999 FEW018 SCT032 BKN110 //////TCU 20/18 Q1009 BECMG 10005KT RMK A2981 TCU FM 40KM S TO 30KM SW MOV UNKNOWN

RJOO/ITM  -  大阪/伊丹

観測日時
2022-05-25 19:00 (UTC) (40分前)
気温
20
露点
16
湿数
4
相対湿度
77.8%
QNH
1009.1hPa
推定現地気圧
1007.7hPa
推定海面気圧
1009.1hPa
体感温度
16.5
(無風時)
20.8
HI
20.1
気温前日比
+2
体感温度前日比
+4.1
HI前日比
+2.2
水平視程
>10000m
鉛直視程
データなし
雲底高度
No dense clouds
V/I
VMC (VFR)
RVR
No RVR data
卓越風
2kt from 70°
ガスト
No gust
降水
報告なし
その他の天気
報告なし
目立った雲なし

RJOO 251900Z AUTO 07002KT 9999 NCD 20/16 Q1009 RMK A2980

RJBB/KIX  -  大阪/関西

観測日時
2022-05-25 19:00 (UTC) (40分前)
気温
19
露点
15
湿数
4
相対湿度
77.6%
QNH
1009hPa
推定現地気圧
1008.4hPa
推定海面気圧
1009.0hPa
体感温度
14.4
(無風時)
20
HI
19
気温前日比
±0
体感温度前日比
+1.5
HI前日比
±0
水平視程
>10000m
鉛直視程
データなし
雲底高度
No dense clouds
V/I
VMC (VFR)
RVR
No RVR data
卓越風
3kt from 140° (110° ~ 180°)
ガスト
No gust
降水
報告なし
その他の天気
報告なし
目立った雲なし

RJBB 251900Z AUTO 14003KT 110V180 9999 NCD 19/15 Q1009 NOSIG

RJFF/FUK  -  福岡

観測日時
2022-05-25 19:00 (UTC) (40分前)
気温
20
露点
18
湿数
2
相対湿度
88.3%
QNH
1006.8hPa
推定現地気圧
1005.7hPa
推定海面気圧
1006.8hPa
体感温度
15
(無風時)
21.2
HI
20.4
気温前日比
-2
体感温度前日比
-1.9
HI前日比
-1.8
水平視程
>10000m
鉛直視程
データなし
雲底高度
9000ft AGL
V/I
VMC (VFR)
RVR
No RVR data
卓越風
4kt from 110°
ガスト
No gust
降水
弱い雨
その他の天気
報告なし
少しの雲 @ 3400ft AGL / 散在する雲 @ 4600ft AGL / 隙間のある雲 @ 9000ft AGL

RJFF 251900Z AUTO 11004KT 9999 -RA FEW034 SCT046 BKN090 20/18 Q1006 NOSIG RMK A2973

ROAH/OKA  -  那覇

観測日時
2022-05-25 19:18 (UTC) (22分前)
気温
24
露点
23
湿数
1
相対湿度
94.1%
QNH
1006.8hPa
推定現地気圧
1006.4hPa
推定海面気圧
1006.7hPa
体感温度
18.9
(無風時)
24.9
HI
24.9
気温前日比
±0
体感温度前日比
+1.9
HI前日比
±0
水平視程
>10000m
鉛直視程
データなし
雲底高度
400ft AGL
V/I
SVMC (SVFR)
RVR
No RVR data
卓越風
7kt from 230°
ガスト
No gust
降水
報告なし
その他の天気
報告なし
隙間のある雲 @ 400ft AGL / 隙間のある雲 @ 1500ft AGL / 全天を覆う雲 @ 2400ft AGL

ROAH 251918Z AUTO 23007KT 9999 BKN004 BKN015 OVC024 24/23 Q1006 RMK A2973

96.3msec